createdAt,value
2018-05-01T00:00:09.429Z,94777.05
2018-05-01T00:02:37.992Z,94772.22
2018-05-01T00:05:06.548Z,94774.02
2018-05-01T00:07:35.110Z,94770.34
2018-05-01T00:10:03.329Z,94771.09
2018-05-01T00:12:31.938Z,94773.98
2018-05-01T00:15:00.507Z,94771.45
2018-05-01T00:17:29.073Z,94769.21
2018-05-01T00:19:57.628Z,94769.83
2018-05-01T00:22:26.187Z,94764.94
2018-05-01T00:24:54.756Z,94768.79
2018-05-01T00:27:23.335Z,94773.13
2018-05-01T00:29:51.897Z,94773.23
2018-05-01T00:32:20.463Z,94777.73
2018-05-01T00:34:49.055Z,94776.47
2018-05-01T00:37:17.606Z,94776.28
2018-05-01T00:39:46.511Z,94773.75
2018-05-01T00:42:15.094Z,94770.53
2018-05-01T00:44:43.690Z,94767.71
2018-05-01T00:47:12.269Z,94769.14
2018-05-01T00:49:40.868Z,94770.05
2018-05-01T00:52:08.753Z,94768.39
2018-05-01T00:54:37.367Z,94773.61
2018-05-01T00:57:05.929Z,94768.66
2018-05-01T00:59:34.491Z,94765.91
2018-05-01T01:02:03.043Z,94772.13
2018-05-01T01:04:31.598Z,94770.52
2018-05-01T01:07:00.171Z,94770.09
2018-05-01T01:09:28.971Z,94771.70
2018-05-01T01:11:57.527Z,94769.92
2018-05-01T01:14:25.901Z,94772.31
2018-05-01T01:16:54.508Z,94776.20
2018-05-01T01:19:23.068Z,94779.55
2018-05-01T01:21:51.632Z,94774.11
2018-05-01T01:24:20.193Z,94771.06
2018-05-01T01:26:48.547Z,94775.58
2018-05-01T01:29:17.149Z,94777.97
2018-05-01T01:31:45.759Z,94776.81
2018-05-01T01:34:14.390Z,94779.20
2018-05-01T01:36:41.712Z,94782.31
2018-05-01T01:39:09.084Z,94773.89
2018-05-01T01:41:36.448Z,94774.89
2018-05-01T01:44:03.826Z,94777.14
2018-05-01T01:46:31.153Z,94774.17
2018-05-01T01:48:58.533Z,94777.67
2018-05-01T01:51:25.907Z,94777.16
2018-05-01T01:53:53.232Z,94770.72
2018-05-01T01:56:20.559Z,94774.25
2018-05-01T01:58:47.871Z,94774.59
2018-05-01T02:01:15.237Z,94783.47
2018-05-01T02:03:42.565Z,94782.42
2018-05-01T02:06:09.905Z,94784.84
2018-05-01T02:08:37.228Z,94783.58
2018-05-01T02:11:04.604Z,94777.63
2018-05-01T02:13:32.180Z,94777.80
2018-05-01T02:15:59.545Z,94781.37
2018-05-01T02:18:26.894Z,94787.58
2018-05-01T02:23:27.863Z,94782.25
2018-05-01T02:25:55.249Z,94781.40
2018-05-01T02:28:22.741Z,94776.88
2018-05-01T02:30:50.069Z,94786.34
2018-05-01T02:33:17.402Z,94783.66
2018-05-01T02:35:44.806Z,94784.75
2018-05-01T02:38:12.132Z,94781.48
2018-05-01T02:40:39.471Z,94776.73
2018-05-01T02:43:06.795Z,94782.38
2018-05-01T02:45:34.127Z,94780.83
2018-05-01T02:48:01.453Z,94781.55
2018-05-01T02:50:28.800Z,94789.38
2018-05-01T02:52:56.123Z,94790.30
2018-05-01T02:55:23.457Z,94788.11
2018-05-01T02:57:50.831Z,94781.16
2018-05-01T03:00:18.148Z,94779.21
2018-05-01T03:02:45.500Z,94786.63
2018-05-01T03:05:12.832Z,94778.17
2018-05-01T03:07:40.155Z,94783.39
2018-05-01T03:10:07.487Z,94781.84
2018-05-01T03:12:34.818Z,94786.23
2018-05-01T03:15:02.162Z,94785.59
2018-05-01T03:17:29.490Z,94788.98
2018-05-01T03:19:56.847Z,94790.65
2018-05-01T03:22:24.175Z,94793.38
2018-05-01T03:24:51.572Z,94792.44
2018-05-01T03:27:18.931Z,94796.48
2018-05-01T03:29:46.258Z,94799.11
2018-05-01T03:32:13.654Z,94802.56
2018-05-01T03:34:40.991Z,94802.11
2018-05-01T03:37:08.328Z,94800.50
2018-05-01T03:39:35.677Z,94803.61
2018-05-01T03:42:03.059Z,94803.00
2018-05-01T03:44:30.407Z,94798.50
2018-05-01T03:46:57.782Z,94806.04
2018-05-01T03:49:25.125Z,94805.05
2018-05-01T03:51:52.500Z,94806.82
2018-05-01T03:54:19.829Z,94803.92
2018-05-01T03:56:47.159Z,94802.75
2018-05-01T03:59:14.484Z,94804.56
2018-05-01T04:01:41.848Z,94806.22
2018-05-01T04:04:09.178Z,94805.59
2018-05-01T04:06:36.552Z,94809.36
2018-05-01T04:09:03.660Z,94811.27
2018-05-01T04:11:30.984Z,94818.37
2018-05-01T04:13:59.230Z,94822.07
2018-05-01T04:16:26.572Z,94824.34
2018-05-01T04:18:53.916Z,94821.10
2018-05-01T04:21:21.530Z,94825.51
2018-05-01T04:23:48.867Z,94826.20
2018-05-01T04:26:16.183Z,94829.25
2018-05-01T04:28:43.498Z,94825.97
2018-05-01T04:31:10.842Z,94831.44
2018-05-01T04:33:38.178Z,94827.13
2018-05-01T04:36:05.523Z,94827.38
2018-05-01T04:38:32.861Z,94830.14
2018-05-01T04:41:00.285Z,94829.00
2018-05-01T04:43:27.629Z,94830.66
2018-05-01T04:45:55.067Z,94834.63
2018-05-01T04:48:22.176Z,94834.70
2018-05-01T04:50:49.503Z,94833.66
2018-05-01T04:53:16.878Z,94828.81
2018-05-01T04:55:44.200Z,94832.53
2018-05-01T04:58:11.545Z,94829.47
2018-05-01T05:00:38.879Z,94832.27
2018-05-01T05:03:06.206Z,94832.41
2018-05-01T05:05:33.544Z,94833.18
2018-05-01T05:08:00.923Z,94834.95
2018-05-01T05:10:28.248Z,94839.23
2018-05-01T05:12:55.627Z,94841.08
2018-05-01T05:15:22.952Z,94848.02
2018-05-01T05:17:50.275Z,94843.36
2018-05-01T05:20:17.599Z,94846.11
2018-05-01T05:22:44.935Z,94848.48
2018-05-01T05:25:12.263Z,94846.38
2018-05-01T05:27:39.593Z,94844.50
2018-05-01T05:30:06.978Z,94845.71
2018-05-01T05:32:34.304Z,94843.69
2018-05-01T05:35:01.642Z,94844.69
2018-05-01T05:37:28.976Z,94837.16
2018-05-01T05:39:56.302Z,94849.49
2018-05-01T05:42:23.631Z,94842.07
2018-05-01T05:44:50.953Z,94847.04
2018-05-01T05:47:18.269Z,94847.53
2018-05-01T05:49:45.596Z,94846.81
2018-05-01T05:52:12.918Z,94844.12
2018-05-01T05:54:40.248Z,94841.62
2018-05-01T05:57:07.583Z,94842.56
2018-05-01T05:59:34.903Z,94840.41
2018-05-01T06:02:02.231Z,94839.92
2018-05-01T06:04:30.276Z,94843.28
2018-05-01T06:06:57.606Z,94840.21
2018-05-01T06:09:24.978Z,94845.09
2018-05-01T06:11:52.308Z,94839.45
2018-05-01T06:14:19.639Z,94842.80
2018-05-01T06:16:47.029Z,94839.03
2018-05-01T06:19:14.361Z,94835.74
2018-05-01T06:21:41.680Z,94836.55
2018-05-01T06:24:09.015Z,94832.42
2018-05-01T06:26:36.330Z,94837.98
2018-05-01T06:29:03.784Z,94832.13
2018-05-01T06:31:31.143Z,94835.42
2018-05-01T06:33:58.486Z,94832.28
2018-05-01T06:36:25.816Z,94826.16
2018-05-01T06:38:53.148Z,94829.09
2018-05-01T06:41:20.475Z,94827.14
2018-05-01T06:43:47.821Z,94835.15
2018-05-01T06:46:15.327Z,94837.30
2018-05-01T06:48:43.399Z,94830.88
2018-05-01T06:51:10.717Z,94825.59
2018-05-01T06:53:38.041Z,94826.91
2018-05-01T06:56:05.359Z,94826.95
2018-05-01T06:58:32.707Z,94825.47
2018-05-01T07:01:00.061Z,94821.88
2018-05-01T07:03:27.387Z,94819.80
2018-05-01T07:05:55.461Z,94822.76
2018-05-01T07:08:22.902Z,94811.97
2018-05-01T07:10:50.231Z,94809.20
2018-05-01T07:13:17.619Z,94809.48
2018-05-01T07:15:45.084Z,94809.50
2018-05-01T07:18:12.426Z,94810.02
2018-05-01T07:20:39.747Z,94800.84
2018-05-01T07:23:07.106Z,94802.50
2018-05-01T07:25:34.427Z,94800.91
2018-05-01T07:28:01.811Z,94795.81
2018-05-01T07:30:29.174Z,94792.88
2018-05-01T07:32:56.539Z,94796.36
2018-05-01T07:35:23.705Z,94792.61
2018-05-01T07:37:51.031Z,94799.30
2018-05-01T07:40:18.365Z,94788.63
2018-05-01T07:42:45.700Z,94786.77
2018-05-01T07:45:13.057Z,94788.76
2018-05-01T07:47:40.423Z,94790.89
2018-05-01T07:50:07.754Z,94790.20
2018-05-01T07:52:35.082Z,94787.11
2018-05-01T07:55:02.403Z,94783.23
2018-05-01T07:57:29.764Z,94783.77
2018-05-01T07:59:57.083Z,94789.55
2018-05-01T08:02:24.408Z,94788.59
2018-05-01T08:04:51.726Z,94790.06
2018-05-01T08:07:19.062Z,94786.32
2018-05-01T08:09:46.384Z,94783.23
2018-05-01T08:12:13.718Z,94789.25
2018-05-01T08:14:41.350Z,94790.03
2018-05-01T08:17:08.681Z,94783.84
2018-05-01T08:19:36.057Z,94783.84
2018-05-01T08:22:03.370Z,94786.61
2018-05-01T08:24:30.773Z,94788.67
2018-05-01T08:26:58.287Z,94787.07
2018-05-01T08:29:25.649Z,94784.12
2018-05-01T08:31:52.972Z,94790.23
2018-05-01T08:34:20.299Z,94788.31
2018-05-01T08:36:48.653Z,94786.83
2018-05-01T08:39:16.114Z,94783.17
2018-05-01T08:41:43.451Z,94784.44
2018-05-01T08:44:10.775Z,94786.66
2018-05-01T08:46:38.121Z,94785.45
2018-05-01T08:49:05.443Z,94774.67
2018-05-01T08:51:32.773Z,94784.05
2018-05-01T08:54:00.113Z,94779.58
2018-05-01T08:56:27.441Z,94778.38
2018-05-01T08:58:54.784Z,94774.30
2018-05-01T09:01:22.103Z,94776.55
2018-05-01T09:03:49.543Z,94778.61
2018-05-01T09:06:18.733Z,94779.77
2018-05-01T09:08:46.885Z,94776.27
2018-05-01T09:11:14.263Z,94777.47
2018-05-01T09:13:41.581Z,94777.09
2018-05-01T09:16:09.020Z,94775.88
2018-05-01T09:18:36.353Z,94773.92
2018-05-01T09:21:03.677Z,94770.34
2018-05-01T09:23:30.996Z,94769.42
2018-05-01T09:25:58.421Z,94768.74
2018-05-01T09:28:26.286Z,94769.52
2018-05-01T09:30:53.644Z,94760.47
2018-05-01T09:33:20.970Z,94764.63
2018-05-01T09:35:48.301Z,94762.52
2018-05-01T09:38:15.667Z,94773.00
2018-05-01T09:40:42.992Z,94767.80
2018-05-01T09:43:10.306Z,94770.05
2018-05-01T09:45:38.325Z,94771.52
2018-05-01T09:48:05.641Z,94766.34
2018-05-01T09:50:32.998Z,94762.38
2018-05-01T09:53:01.599Z,94757.64
2018-05-01T09:55:30.154Z,94760.98
2018-05-01T09:57:58.751Z,94763.73
2018-05-01T10:00:27.372Z,94760.51
2018-05-01T10:02:55.712Z,94759.57
2018-05-01T10:05:27.343Z,94755.70
2018-05-01T10:07:55.915Z,94755.38
2018-05-01T10:10:24.472Z,94753.53
2018-05-01T10:12:53.026Z,94755.95
2018-05-01T10:15:21.397Z,94748.45
2018-05-01T10:17:49.995Z,94744.31
2018-05-01T10:20:18.591Z,94746.34
2018-05-01T10:22:47.176Z,94740.13
2018-05-01T10:25:15.561Z,94741.24
2018-05-01T10:27:43.907Z,94735.33
2018-05-01T10:30:12.233Z,94739.89
2018-05-01T10:32:40.799Z,94731.95
2018-05-01T10:35:09.354Z,94738.30
2018-05-01T10:37:37.939Z,94732.20
2018-05-01T10:40:06.516Z,94733.55
2018-05-01T10:42:35.263Z,94737.62
2018-05-01T10:45:03.816Z,94735.42
2018-05-01T10:47:32.362Z,94737.80
2018-05-01T10:50:00.965Z,94737.06
2018-05-01T10:52:29.291Z,94736.42
2018-05-01T10:54:57.843Z,94738.66
2018-05-01T10:57:26.391Z,94736.17
2018-05-01T10:59:54.951Z,94733.39
2018-05-01T11:02:23.523Z,94737.02
2018-05-01T11:04:52.108Z,94734.30
2018-05-01T11:07:20.657Z,94733.78
2018-05-01T11:09:49.284Z,94731.11
2018-05-01T11:12:17.623Z,94730.24
2018-05-01T11:14:46.199Z,94726.64
2018-05-01T11:17:14.751Z,94724.59
2018-05-01T11:19:44.210Z,94727.84
2018-05-01T11:22:12.778Z,94729.93
2018-05-01T11:24:41.455Z,94717.19
2018-05-01T11:27:10.195Z,94721.03
2018-05-01T11:29:38.755Z,94723.31
2018-05-01T11:32:07.332Z,94724.36
2018-05-01T11:34:35.886Z,94720.20
2018-05-01T11:37:04.443Z,94717.41
2018-05-01T11:39:33.006Z,94717.30
2018-05-01T11:42:01.672Z,94710.55
2018-05-01T11:44:30.229Z,94710.41
2018-05-01T11:46:58.803Z,94710.41
2018-05-01T11:49:27.575Z,94703.27
2018-05-01T11:51:56.140Z,94700.03
2018-05-01T11:54:25.466Z,94699.27
2018-05-01T11:56:54.091Z,94696.28
2018-05-01T11:59:22.943Z,94691.19
2018-05-01T12:01:51.724Z,94690.17
2018-05-01T12:04:20.801Z,94686.24
2018-05-01T12:06:49.391Z,94684.20
2018-05-01T12:09:18.787Z,94684.43
2018-05-01T12:11:47.337Z,94681.66
2018-05-01T12:14:16.847Z,94682.17
2018-05-01T12:16:45.429Z,94679.62
2018-05-01T12:19:14.041Z,94671.74
2018-05-01T12:21:42.598Z,94671.63
2018-05-01T12:24:11.205Z,94666.03
2018-05-01T12:26:39.823Z,94664.70
2018-05-01T12:29:08.376Z,94662.39
2018-05-01T12:31:36.974Z,94657.02
2018-05-01T12:34:05.537Z,94659.36
2018-05-01T12:36:34.245Z,94659.68
2018-05-01T12:39:02.905Z,94653.35
2018-05-01T12:41:31.522Z,94648.58
2018-05-01T12:44:00.088Z,94640.37
2018-05-01T12:46:28.639Z,94647.58
2018-05-01T12:48:57.278Z,94645.59
2018-05-01T12:51:25.849Z,94639.57
2018-05-01T12:53:54.528Z,94640.08
2018-05-01T12:56:23.232Z,94633.93
2018-05-01T12:58:51.795Z,94638.70
2018-05-01T13:01:20.357Z,94626.90
2018-05-01T13:03:48.911Z,94630.71
2018-05-01T13:06:17.512Z,94627.09
2018-05-01T13:08:46.829Z,94623.69
2018-05-01T13:11:15.381Z,94620.42
2018-05-01T13:13:43.934Z,94616.91
2018-05-01T13:16:12.859Z,94611.16
2018-05-01T13:18:43.210Z,94606.74
2018-05-01T13:21:11.780Z,94599.48
2018-05-01T13:23:40.365Z,94602.38
2018-05-01T13:26:08.934Z,94592.16
2018-05-01T13:28:37.489Z,94588.17
2018-05-01T13:31:06.980Z,94584.44
2018-05-01T13:33:35.556Z,94581.20
2018-05-01T13:36:04.121Z,94579.86
2018-05-01T13:38:32.688Z,94577.56
2018-05-01T13:41:01.264Z,94574.45
2018-05-01T13:43:29.824Z,94569.83
2018-05-01T13:45:58.406Z,94567.28
2018-05-01T13:48:26.978Z,94576.13
2018-05-01T13:50:55.540Z,94573.74
2018-05-01T13:53:23.865Z,94572.78
2018-05-01T13:55:52.425Z,94568.04
2018-05-01T13:58:21.050Z,94572.08
2018-05-01T14:00:49.622Z,94562.04
2018-05-01T14:03:18.197Z,94559.16
2018-05-01T14:05:46.402Z,94554.42
2018-05-01T14:08:15.003Z,94552.21
2018-05-01T14:10:43.563Z,94557.95
2018-05-01T14:13:12.141Z,94556.06
2018-05-01T14:15:41.896Z,94551.81
2018-05-01T14:18:10.472Z,94544.48
2018-05-01T14:20:39.035Z,94548.13
2018-05-01T14:23:07.632Z,94543.01
2018-05-01T14:25:36.384Z,94543.80
2018-05-01T14:28:05.019Z,94542.72
2018-05-01T14:30:33.635Z,94543.92
2018-05-01T14:33:02.192Z,94548.11
2018-05-01T14:35:30.768Z,94548.27
2018-05-01T14:38:00.248Z,94550.30
2018-05-01T14:40:28.807Z,94554.59
2018-05-01T14:42:57.387Z,94555.11
2018-05-01T14:45:25.944Z,94548.16
2018-05-01T14:47:54.711Z,94543.58
2018-05-01T14:50:23.263Z,94539.36
2018-05-01T14:52:52.726Z,94546.66
2018-05-01T14:55:22.133Z,94542.70
2018-05-01T14:57:51.082Z,94549.70
2018-05-01T15:00:27.972Z,94551.49
2018-05-01T15:03:06.826Z,94551.90
2018-05-01T15:05:42.253Z,94568.41
2018-05-01T15:08:11.336Z,94578.61
2018-05-01T15:10:39.975Z,94584.25
2018-05-01T15:13:18.113Z,94574.70
2018-05-01T15:15:46.753Z,94570.67
2018-05-01T15:18:15.342Z,94562.31
2018-05-01T15:20:44.007Z,94565.30
2018-05-01T15:23:12.467Z,94561.67
2018-05-01T15:25:41.032Z,94564.40
2018-05-01T15:28:09.607Z,94569.21
2018-05-01T15:30:37.338Z,94575.59
2018-05-01T15:33:05.892Z,94580.31
2018-05-01T15:35:34.582Z,94582.22
2018-05-01T15:38:04.083Z,94577.35
2018-05-01T15:40:32.650Z,94579.38
2018-05-01T15:43:01.215Z,94579.30
2018-05-01T15:45:29.767Z,94572.74
2018-05-01T15:47:59.204Z,94572.02
2018-05-01T15:50:27.782Z,94563.14
2018-05-01T15:52:56.861Z,94569.83
2018-05-01T15:55:25.458Z,94563.01
2018-05-01T15:57:54.006Z,94561.20
2018-05-01T16:00:22.284Z,94565.62
2018-05-01T16:02:50.865Z,94566.66
2018-05-01T16:05:19.429Z,94561.95
2018-05-01T16:07:47.672Z,94570.80
2018-05-01T16:10:16.285Z,94573.89
2018-05-01T16:12:44.661Z,94576.84
2018-05-01T16:15:13.031Z,94579.72
2018-05-01T16:17:41.359Z,94577.46
2018-05-01T16:20:09.965Z,94576.08
2018-05-01T16:22:38.523Z,94581.56
2018-05-01T16:25:07.190Z,94583.39
2018-05-01T16:27:35.758Z,94575.90
2018-05-01T16:30:05.002Z,94575.31
2018-05-01T16:32:33.398Z,94579.91
2018-05-01T16:35:02.026Z,94578.52
2018-05-01T16:37:30.647Z,94573.76
2018-05-01T16:39:59.244Z,94571.97
2018-05-01T16:42:27.840Z,94573.76
2018-05-01T16:44:56.442Z,94575.86
2018-05-01T16:47:25.007Z,94574.34
2018-05-01T16:49:53.620Z,94572.83
2018-05-01T16:52:22.179Z,94567.59
2018-05-01T16:54:50.784Z,94568.98
2018-05-01T16:57:19.371Z,94569.19
2018-05-01T16:59:47.960Z,94572.28
2018-05-01T17:02:16.570Z,94575.47
2018-05-01T17:04:45.256Z,94586.55
2018-05-01T17:07:13.806Z,94590.66
2018-05-01T17:09:42.371Z,94593.50
2018-05-01T17:12:10.635Z,94599.05
2018-05-01T17:14:39.253Z,94597.31
2018-05-01T17:17:08.830Z,94602.75
2018-05-01T17:19:37.410Z,94608.21
2018-05-01T17:22:06.010Z,94610.13
2018-05-01T17:24:34.759Z,94612.04
2018-05-01T17:27:03.320Z,94621.36
2018-05-01T17:29:32.720Z,94623.58
2018-05-01T17:32:01.283Z,94623.70
2018-05-01T17:34:29.844Z,94624.17
2018-05-01T17:36:58.420Z,94622.13
2018-05-01T17:39:27.119Z,94629.52
2018-05-01T17:41:55.683Z,94634.48
2018-05-01T17:44:24.263Z,94636.55
2018-05-01T17:46:52.848Z,94640.72
2018-05-01T17:49:21.404Z,94635.91
2018-05-01T17:51:50.023Z,94642.73
2018-05-01T17:54:18.583Z,94646.25
2018-05-01T17:56:48.136Z,94651.46
2018-05-01T17:59:16.874Z,94653.20
2018-05-01T18:01:45.510Z,94653.61
2018-05-01T18:04:14.172Z,94663.49
2018-05-01T18:06:42.773Z,94669.09
2018-05-01T18:09:11.355Z,94664.14
2018-05-01T18:11:39.907Z,94669.23
2018-05-01T18:14:08.488Z,94670.97
2018-05-01T18:16:37.055Z,94675.95
2018-05-01T18:19:05.810Z,94679.84
2018-05-01T18:21:34.378Z,94677.48
2018-05-01T18:24:03.079Z,94678.17
2018-05-01T18:26:31.644Z,94680.50
2018-05-01T18:29:00.195Z,94677.38
2018-05-01T18:31:28.947Z,94684.73
2018-05-01T18:33:57.508Z,94690.48
2018-05-01T18:36:26.079Z,94687.58
2018-05-01T18:38:54.712Z,94693.32
2018-05-01T18:41:23.375Z,94696.94
2018-05-01T18:43:51.955Z,94694.16
2018-05-01T18:46:20.573Z,94691.53
2018-05-01T18:48:49.237Z,94695.00
2018-05-01T18:51:17.828Z,94700.08
2018-05-01T18:53:46.474Z,94694.08
2018-05-01T18:56:15.040Z,94699.55
2018-05-01T18:58:44.603Z,94699.41
2018-05-01T19:01:13.156Z,94701.45
2018-05-01T19:03:41.708Z,94707.84
2018-05-01T19:06:10.395Z,94705.31
2018-05-01T19:08:39.031Z,94711.87
2018-05-01T19:11:07.390Z,94713.50
2018-05-01T19:13:35.993Z,94712.97
2018-05-01T19:16:04.564Z,94709.63
2018-05-01T19:18:36.345Z,94707.25
2018-05-01T19:21:04.901Z,94717.78
2018-05-01T19:23:33.468Z,94713.14
2018-05-01T19:26:03.134Z,94710.06
2018-05-01T19:28:31.701Z,94708.88
2018-05-01T19:31:00.266Z,94711.56
2018-05-01T19:33:28.820Z,94716.48
2018-05-01T19:36:00.917Z,94714.45
2018-05-01T19:38:29.637Z,94712.09
2018-05-01T19:40:58.196Z,94705.16
2018-05-01T19:43:26.755Z,94709.66
2018-05-01T19:45:55.338Z,94711.53
2018-05-01T19:48:23.908Z,94710.72
2018-05-01T19:50:52.503Z,94710.45
2018-05-01T19:53:22.254Z,94711.39
2018-05-01T19:55:50.848Z,94715.23
2018-05-01T19:58:19.427Z,94718.84
2018-05-01T20:00:48.073Z,94717.52
2018-05-01T20:03:16.714Z,94722.56
2018-05-01T20:05:45.499Z,94719.37
2018-05-01T20:08:14.067Z,94718.94
2018-05-01T20:10:42.630Z,94721.61
2018-05-01T20:13:12.159Z,94716.82
2018-05-01T20:15:42.620Z,94725.09
2018-05-01T20:18:11.179Z,94719.34
2018-05-01T20:20:39.762Z,94728.02
2018-05-01T20:23:08.335Z,94723.17
2018-05-01T20:25:36.952Z,94725.83
2018-05-01T20:28:05.511Z,94719.70
2018-05-01T20:30:34.113Z,94719.04
2018-05-01T20:33:02.687Z,94717.73
2018-05-01T20:35:31.250Z,94720.14
2018-05-01T20:37:59.883Z,94712.53
2018-05-01T20:40:28.479Z,94720.13
2018-05-01T20:42:57.121Z,94715.17
2018-05-01T20:45:25.722Z,94699.33
2018-05-01T20:47:54.280Z,94704.92
2018-05-01T20:50:22.841Z,94703.33
2018-05-01T20:52:51.427Z,94708.53
2018-05-01T20:55:20.002Z,94704.36
2018-05-01T20:57:48.600Z,94711.20
2018-05-01T21:00:17.468Z,94711.44
2018-05-01T21:02:46.032Z,94709.39
2018-05-01T21:05:14.640Z,94703.64
2018-05-01T21:07:43.248Z,94711.42
2018-05-01T21:10:14.784Z,94709.59
2018-05-01T21:12:43.440Z,94704.13
2018-05-01T21:15:11.999Z,94706.41
2018-05-01T21:17:40.561Z,94709.03
2018-05-01T21:20:09.130Z,94711.89
2018-05-01T21:22:38.559Z,94716.79
2018-05-01T21:25:07.749Z,94709.09
2018-05-01T21:27:40.759Z,94711.34
2018-05-01T21:30:09.762Z,94713.42
2018-05-01T21:32:38.328Z,94718.86
2018-05-01T21:35:06.911Z,94722.17
2018-05-01T21:37:35.494Z,94724.31
2018-05-01T21:40:03.704Z,94717.73
2018-05-01T21:42:32.304Z,94717.33
2018-05-01T21:45:01.253Z,94711.59
2018-05-01T21:47:29.823Z,94716.75
2018-05-01T21:49:58.384Z,94713.39
2018-05-01T21:52:26.944Z,94715.77
2018-05-01T21:54:56.121Z,94713.79
2018-05-01T21:57:24.699Z,94713.45
2018-05-01T21:59:53.295Z,94709.96
2018-05-01T22:02:21.887Z,94714.23
2018-05-01T22:04:50.459Z,94709.13
2018-05-01T22:07:19.036Z,94711.66
2018-05-01T22:09:47.585Z,94714.84
2018-05-01T22:12:16.191Z,94713.64
2018-05-01T22:14:44.465Z,94721.98
2018-05-01T22:17:13.053Z,94720.59
2018-05-01T22:19:41.612Z,94719.54
2018-05-01T22:22:11.147Z,94723.24
2018-05-01T22:24:39.695Z,94716.64
2018-05-01T22:27:08.275Z,94710.98
2018-05-01T22:29:37.003Z,94716.82
2018-05-01T22:32:05.206Z,94699.95
2018-05-01T22:34:33.772Z,94710.06
2018-05-01T22:37:02.323Z,94700.05
2018-05-01T22:39:30.868Z,94704.00
2018-05-01T22:42:00.057Z,94701.28
2018-05-01T22:44:28.610Z,94699.41
2018-05-01T22:46:57.166Z,94695.23
2018-05-01T22:49:25.716Z,94698.78
2018-05-01T22:51:54.316Z,94695.42
2018-05-01T22:54:22.863Z,94698.47
2018-05-01T22:56:51.418Z,94702.30
2018-05-01T22:59:19.743Z,94699.55
2018-05-01T23:01:48.305Z,94689.98
2018-05-01T23:04:16.867Z,94694.05
2018-05-01T23:06:45.441Z,94688.70
2018-05-01T23:09:14.002Z,94693.33
2018-05-01T23:11:42.549Z,94688.52
2018-05-01T23:14:11.152Z,94690.73
2018-05-01T23:16:39.701Z,94686.67
2018-05-01T23:19:08.262Z,94687.76
2018-05-01T23:21:36.815Z,94685.03
2018-05-01T23:24:05.365Z,94686.23
2018-05-01T23:26:33.923Z,94684.22
2018-05-01T23:29:02.540Z,94683.91
2018-05-01T23:31:31.252Z,94683.34
2018-05-01T23:33:59.805Z,94687.25
2018-05-01T23:36:28.354Z,94680.70
2018-05-01T23:38:56.904Z,94683.88
2018-05-01T23:41:25.478Z,94678.77
2018-05-01T23:43:54.047Z,94679.66
2018-05-01T23:46:22.600Z,94679.85
2018-05-01T23:48:51.207Z,94676.36
2018-05-01T23:51:19.807Z,94681.78
2018-05-01T23:53:48.381Z,94683.75
2018-05-01T23:56:16.939Z,94684.27
2018-05-01T23:58:45.505Z,94688.20
